sensor_id;sensor_type;location;lat;lon;timestamp;pressure;altitude;pressure_sealevel;temperature;humidity
48882;BME280;57063;51.406;-2.402;2023-11-19T00:01:26;99767.75;;;10.74;100.00
48882;BME280;57063;51.406;-2.402;2023-11-19T00:03:51;99768.56;;;10.75;100.00
48882;BME280;57063;51.406;-2.402;2023-11-19T00:06:16;99767.03;;;10.72;100.00
48882;BME280;57063;51.406;-2.402;2023-11-19T00:08:42;99777.47;;;10.70;100.00
48882;BME280;57063;51.406;-2.402;2023-11-19T00:11:09;99774.13;;;10.81;100.00
48882;BME280;57063;51.406;-2.402;2023-11-19T00:13:34;99780.56;;;10.76;100.00
48882;BME280;57063;51.406;-2.402;2023-11-19T00:15:59;99771.91;;;10.64;100.00
48882;BME280;57063;51.406;-2.402;2023-11-19T00:18:25;99771.59;;;10.68;100.00
48882;BME280;57063;51.406;-2.402;2023-11-19T00:20:50;99757.81;;;10.68;100.00
48882;BME280;57063;51.406;-2.402;2023-11-19T00:23:15;99761.25;;;10.68;100.00
48882;BME280;57063;51.406;-2.402;2023-11-19T00:25:41;99758.03;;;10.78;100.00
48882;BME280;57063;51.406;-2.402;2023-11-19T00:28:06;99750.63;;;10.73;100.00
48882;BME280;57063;51.406;-2.402;2023-11-19T00:30:32;99743.78;;;10.72;100.00
48882;BME280;57063;51.406;-2.402;2023-11-19T00:32:57;99738.00;;;10.81;100.00
48882;BME280;57063;51.406;-2.402;2023-11-19T00:35:22;99738.75;;;10.70;100.00
48882;BME280;57063;51.406;-2.402;2023-11-19T00:37:47;99733.47;;;10.72;100.00
48882;BME280;57063;51.406;-2.402;2023-11-19T00:40:14;99736.38;;;10.67;100.00
48882;BME280;57063;51.406;-2.402;2023-11-19T00:42:41;99736.50;;;10.66;100.00
48882;BME280;57063;51.406;-2.402;2023-11-19T00:45:06;99735.13;;;10.60;100.00
48882;BME280;57063;51.406;-2.402;2023-11-19T00:47:35;99744.22;;;10.66;100.00
48882;BME280;57063;51.406;-2.402;2023-11-19T00:50:01;99734.09;;;10.76;100.00
48882;BME280;57063;51.406;-2.402;2023-11-19T00:52:27;99732.66;;;10.71;100.00
48882;BME280;57063;51.406;-2.402;2023-11-19T00:54:52;99737.63;;;10.62;100.00
48882;BME280;57063;51.406;-2.402;2023-11-19T00:57:17;99735.34;;;10.57;100.00
48882;BME280;57063;51.406;-2.402;2023-11-19T00:59:43;99733.06;;;10.65;100.00
48882;BME280;57063;51.406;-2.402;2023-11-19T01:02:08;99723.59;;;10.53;100.00
48882;BME280;57063;51.406;-2.402;2023-11-19T01:04:34;99712.84;;;10.59;100.00
48882;BME280;57063;51.406;-2.402;2023-11-19T01:07:04;99717.50;;;10.54;100.00
48882;BME280;57063;51.406;-2.402;2023-11-19T01:09:30;99715.66;;;10.56;100.00
48882;BME280;57063;51.406;-2.402;2023-11-19T01:12:00;99710.69;;;10.53;100.00
48882;BME280;57063;51.406;-2.402;2023-11-19T01:14:26;99701.53;;;10.49;100.00
48882;BME280;57063;51.406;-2.402;2023-11-19T01:16:51;99698.13;;;10.48;100.00
48882;BME280;57063;51.406;-2.402;2023-11-19T01:19:19;99703.78;;;10.54;100.00
48882;BME280;57063;51.406;-2.402;2023-11-19T01:21:44;99711.94;;;10.47;100.00
48882;BME280;57063;51.406;-2.402;2023-11-19T01:24:09;99712.25;;;10.43;100.00
48882;BME280;57063;51.406;-2.402;2023-11-19T01:26:35;99712.47;;;10.40;100.00
48882;BME280;57063;51.406;-2.402;2023-11-19T01:29:00;99718.44;;;10.40;100.00
48882;BME280;57063;51.406;-2.402;2023-11-19T01:31:26;99704.22;;;10.35;100.00
48882;BME280;57063;51.406;-2.402;2023-11-19T01:33:51;99712.56;;;10.38;100.00
48882;BME280;57063;51.406;-2.402;2023-11-19T01:36:17;99710.84;;;10.39;100.00
48882;BME280;57063;51.406;-2.402;2023-11-19T01:38:42;99725.66;;;10.48;100.00
48882;BME280;57063;51.406;-2.402;2023-11-19T01:41:08;99705.97;;;10.47;100.00
48882;BME280;57063;51.406;-2.402;2023-11-19T01:43:38;99709.25;;;10.49;100.00
48882;BME280;57063;51.406;-2.402;2023-11-19T01:46:05;99703.69;;;10.42;100.00
48882;BME280;57063;51.406;-2.402;2023-11-19T01:48:32;99691.63;;;10.43;100.00
48882;BME280;57063;51.406;-2.402;2023-11-19T01:50:59;99682.09;;;10.43;100.00
48882;BME280;57063;51.406;-2.402;2023-11-19T01:53:25;99694.91;;;10.45;100.00
48882;BME280;57063;51.406;-2.402;2023-11-19T01:55:51;99694.81;;;10.46;100.00
48882;BME280;57063;51.406;-2.402;2023-11-19T01:58:17;99680.66;;;10.52;100.00
48882;BME280;57063;51.406;-2.402;2023-11-19T02:00:44;99689.16;;;10.41;100.00
48882;BME280;57063;51.406;-2.402;2023-11-19T02:03:10;99671.78;;;10.43;100.00
48882;BME280;57063;51.406;-2.402;2023-11-19T02:05:37;99678.63;;;10.44;100.00
48882;BME280;57063;51.406;-2.402;2023-11-19T02:08:02;99667.66;;;10.41;100.00
48882;BME280;57063;51.406;-2.402;2023-11-19T02:10:28;99669.97;;;10.33;100.00
48882;BME280;57063;51.406;-2.402;2023-11-19T02:12:53;99675.34;;;10.30;100.00
48882;BME280;57063;51.406;-2.402;2023-11-19T02:15:20;99683.47;;;10.36;100.00
48882;BME280;57063;51.406;-2.402;2023-11-19T02:17:47;99689.97;;;10.42;100.00
48882;BME280;57063;51.406;-2.402;2023-11-19T02:20:12;99682.75;;;10.47;100.00
48882;BME280;57063;51.406;-2.402;2023-11-19T02:22:40;99681.28;;;10.43;100.00
48882;BME280;57063;51.406;-2.402;2023-11-19T02:25:15;99685.63;;;10.42;100.00
48882;BME280;57063;51.406;-2.402;2023-11-19T02:30:07;99686.22;;;10.46;100.00
48882;BME280;57063;51.406;-2.402;2023-11-19T02:32:34;99691.63;;;10.43;100.00
48882;BME280;57063;51.406;-2.402;2023-11-19T02:35:01;99685.50;;;10.57;100.00
48882;BME280;57063;51.406;-2.402;2023-11-19T02:37:26;99685.22;;;10.48;100.00
48882;BME280;57063;51.406;-2.402;2023-11-19T02:39:53;99676.03;;;10.44;100.00
48882;BME280;57063;51.406;-2.402;2023-11-19T02:42:19;99678.19;;;10.50;100.00
48882;BME280;57063;51.406;-2.402;2023-11-19T02:44:45;99682.97;;;10.44;100.00
48882;BME280;57063;51.406;-2.402;2023-11-19T02:47:11;99691.25;;;10.60;100.00
48882;BME280;57063;51.406;-2.402;2023-11-19T02:49:36;99688.50;;;10.63;100.00
48882;BME280;57063;51.406;-2.402;2023-11-19T02:52:03;99688.41;;;10.52;100.00
48882;BME280;57063;51.406;-2.402;2023-11-19T02:54:30;99692.63;;;10.66;100.00
48882;BME280;57063;51.406;-2.402;2023-11-19T02:57:00;99693.88;;;10.47;100.00
48882;BME280;57063;51.406;-2.402;2023-11-19T02:59:26;99684.19;;;10.51;100.00
48882;BME280;57063;51.406;-2.402;2023-11-19T03:01:53;99687.28;;;10.43;100.00
48882;BME280;57063;51.406;-2.402;2023-11-19T03:04:20;99687.69;;;10.50;100.00
48882;BME280;57063;51.406;-2.402;2023-11-19T03:06:46;99680.66;;;10.52;100.00
48882;BME280;57063;51.406;-2.402;2023-11-19T03:09:12;99682.97;;;10.44;100.00
48882;BME280;57063;51.406;-2.402;2023-11-19T03:11:37;99661.19;;;10.35;100.00
48882;BME280;57063;51.406;-2.402;2023-11-19T03:14:03;99659.97;;;10.28;100.00
48882;BME280;57063;51.406;-2.402;2023-11-19T03:16:28;99654.72;;;10.30;100.00
48882;BME280;57063;51.406;-2.402;2023-11-19T03:18:54;99648.06;;;10.38;100.00
48882;BME280;57063;51.406;-2.402;2023-11-19T03:21:27;99661.38;;;10.45;100.00
48882;BME280;57063;51.406;-2.402;2023-11-19T03:23:53;99645.41;;;10.40;100.00
48882;BME280;57063;51.406;-2.402;2023-11-19T03:26:18;99650.25;;;10.44;100.00
48882;BME280;57063;51.406;-2.402;2023-11-19T03:28:43;99653.84;;;10.42;100.00
48882;BME280;57063;51.406;-2.402;2023-11-19T03:31:08;99646.75;;;10.33;100.00
48882;BME280;57063;51.406;-2.402;2023-11-19T03:33:34;99662.50;;;10.41;100.00
48882;BME280;57063;51.406;-2.402;2023-11-19T03:35:59;99653.63;;;10.45;100.00
48882;BME280;57063;51.406;-2.402;2023-11-19T03:38:24;99650.56;;;10.40;100.00
48882;BME280;57063;51.406;-2.402;2023-11-19T03:40:50;99655.50;;;10.43;100.00
48882;BME280;57063;51.406;-2.402;2023-11-19T03:43:15;99666.19;;;10.62;100.00
48882;BME280;57063;51.406;-2.402;2023-11-19T03:45:41;99657.22;;;10.55;100.00
48882;BME280;57063;51.406;-2.402;2023-11-19T03:48:06;99651.47;;;10.52;100.00
48882;BME280;57063;51.406;-2.402;2023-11-19T03:50:31;99643.31;;;10.45;100.00
48882;BME280;57063;51.406;-2.402;2023-11-19T03:52:56;99643.09;;;10.48;100.00
48882;BME280;57063;51.406;-2.402;2023-11-19T03:55:22;99646.53;;;10.36;100.00
48882;BME280;57063;51.406;-2.402;2023-11-19T03:57:47;99649.75;;;10.39;100.00
48882;BME280;57063;51.406;-2.402;2023-11-19T04:00:14;99650.56;;;10.40;100.00
48882;BME280;57063;51.406;-2.402;2023-11-19T04:02:40;99654.50;;;10.33;100.00
48882;BME280;57063;51.406;-2.402;2023-11-19T04:05:06;99674.59;;;10.40;100.00
48882;BME280;57063;51.406;-2.402;2023-11-19T04:07:32;99685.03;;;10.39;100.00
48882;BME280;57063;51.406;-2.402;2023-11-19T04:09:58;99700.69;;;10.36;100.00
48882;BME280;57063;51.406;-2.402;2023-11-19T04:12:23;99687.19;;;10.19;100.00
48882;BME280;57063;51.406;-2.402;2023-11-19T04:14:49;99708.22;;;10.13;100.00
48882;BME280;57063;51.406;-2.402;2023-11-19T04:17:14;99688.31;;;10.15;100.00
48882;BME280;57063;51.406;-2.402;2023-11-19T04:19:39;99669.13;;;10.06;100.00
48882;BME280;57063;51.406;-2.402;2023-11-19T04:22:07;99671.09;;;10.03;100.00
48882;BME280;57063;51.406;-2.402;2023-11-19T04:24:34;99685.03;;;9.88;100.00
48882;BME280;57063;51.406;-2.402;2023-11-19T04:26:59;99682.31;;;9.89;100.00
48882;BME280;57063;51.406;-2.402;2023-11-19T04:29:24;99674.88;;;9.84;100.00
48882;BME280;57063;51.406;-2.402;2023-11-19T04:31:50;99673.97;;;9.85;100.00
48882;BME280;57063;51.406;-2.402;2023-11-19T04:34:15;99668.81;;;9.85;100.00
48882;BME280;57063;51.406;-2.402;2023-11-19T04:36:41;99662.00;;;9.84;100.00
48882;BME280;57063;51.406;-2.402;2023-11-19T04:39:06;99653.16;;;9.89;100.00
48882;BME280;57063;51.406;-2.402;2023-11-19T04:41:49;99656.53;;;10.02;100.00
48882;BME280;57063;51.406;-2.402;2023-11-19T04:44:15;99650.34;;;9.92;100.00
48882;BME280;57063;51.406;-2.402;2023-11-19T04:46:41;99650.78;;;9.85;100.00
48882;BME280;57063;51.406;-2.402;2023-11-19T04:49:09;99659.31;;;9.99;100.00
48882;BME280;57063;51.406;-2.402;2023-11-19T04:51:42;99677.59;;;9.96;100.00
48882;BME280;57063;51.406;-2.402;2023-11-19T04:54:09;99660.66;;;9.92;100.00
48882;BME280;57063;51.406;-2.402;2023-11-19T04:56:38;99653.44;;;9.97;100.00
48882;BME280;57063;51.406;-2.402;2023-11-19T04:59:04;99662.84;;;9.98;100.00
48882;BME280;57063;51.406;-2.402;2023-11-19T05:01:31;99653.88;;;10.03;100.00
48882;BME280;57063;51.406;-2.402;2023-11-19T05:03:56;99648.94;;;9.88;100.00
48882;BME280;57063;51.406;-2.402;2023-11-19T05:06:26;99644.81;;;9.98;100.00
48882;BME280;57063;51.406;-2.402;2023-11-19T05:08:52;99631.59;;;9.90;100.00
48882;BME280;57063;51.406;-2.402;2023-11-19T05:11:17;99628.19;;;9.76;100.00
48882;BME280;57063;51.406;-2.402;2023-11-19T05:13:44;99635.09;;;9.89;100.00
48882;BME280;57063;51.406;-2.402;2023-11-19T05:16:11;99625.75;;;9.88;100.00
48882;BME280;57063;51.406;-2.402;2023-11-19T05:18:39;99620.25;;;9.79;100.00
48882;BME280;57063;51.406;-2.402;2023-11-19T05:21:05;99632.13;;;9.82;100.00
48882;BME280;57063;51.406;-2.402;2023-11-19T05:23:30;99633.75;;;9.70;100.00
48882;BME280;57063;51.406;-2.402;2023-11-19T05:25:55;99625.00;;;9.73;100.00
48882;BME280;57063;51.406;-2.402;2023-11-19T05:28:21;99617.47;;;9.70;100.00
48882;BME280;57063;51.406;-2.402;2023-11-19T05:30:46;99612.63;;;9.65;100.00
48882;BME280;57063;51.406;-2.402;2023-11-19T05:33:11;99610.16;;;9.63;100.00
48882;BME280;57063;51.406;-2.402;2023-11-19T05:35:37;99623.78;;;9.78;100.00
48882;BME280;57063;51.406;-2.402;2023-11-19T05:38:02;99627.69;;;9.71;100.00
48882;BME280;57063;51.406;-2.402;2023-11-19T05:40:27;99626.44;;;9.90;100.00
48882;BME280;57063;51.406;-2.402;2023-11-19T05:42:53;99632.31;;;9.79;100.00
48882;BME280;57063;51.406;-2.402;2023-11-19T05:45:18;99627.38;;;9.76;100.00
48882;BME280;57063;51.406;-2.402;2023-11-19T05:47:43;99625.63;;;9.76;100.00
48882;BME280;57063;51.406;-2.402;2023-11-19T05:50:09;99623.97;;;9.75;100.00
48882;BME280;57063;51.406;-2.402;2023-11-19T05:52:35;99616.97;;;9.90;100.00
48882;BME280;57063;51.406;-2.402;2023-11-19T05:55:01;99626.88;;;9.83;100.00
48882;BME280;57063;51.406;-2.402;2023-11-19T05:57:29;99609.34;;;9.89;100.00
48882;BME280;57063;51.406;-2.402;2023-11-19T05:59:54;99609.34;;;9.89;100.00
48882;BME280;57063;51.406;-2.402;2023-11-19T06:02:20;99628.63;;;9.83;100.00
48882;BME280;57063;51.406;-2.402;2023-11-19T06:04:45;99609.34;;;9.89;100.00
48882;BME280;57063;51.406;-2.402;2023-11-19T06:07:13;99627.88;;;9.94;100.00
48882;BME280;57063;51.406;-2.402;2023-11-19T06:09:38;99614.50;;;9.89;100.00
48882;BME280;57063;51.406;-2.402;2023-11-19T06:12:05;99634.16;;;10.15;100.00
48882;BME280;57063;51.406;-2.402;2023-11-19T06:14:31;99633.84;;;10.07;100.00
48882;BME280;57063;51.406;-2.402;2023-11-19T06:16:56;99625.47;;;10.16;100.00
48882;BME280;57063;51.406;-2.402;2023-11-19T06:19:22;99643.75;;;10.13;100.00
48882;BME280;57063;51.406;-2.402;2023-11-19T06:21:49;99650.25;;;10.06;100.00
48882;BME280;57063;51.406;-2.402;2023-11-19T06:24:15;99641.69;;;10.18;100.00
48882;BME280;57063;51.406;-2.402;2023-11-19T06:26:40;99649.94;;;10.11;100.00
48882;BME280;57063;51.406;-2.402;2023-11-19T06:29:05;99657.97;;;10.19;100.00
48882;BME280;57063;51.406;-2.402;2023-11-19T06:31:31;99645.19;;;10.17;100.00
48882;BME280;57063;51.406;-2.402;2023-11-19T06:33:56;99655.53;;;10.17;100.00
48882;BME280;57063;51.406;-2.402;2023-11-19T06:36:21;99657.78;;;10.22;100.00
48882;BME280;57063;51.406;-2.402;2023-11-19T06:38:47;99655.31;;;10.20;100.00
48882;BME280;57063;51.406;-2.402;2023-11-19T06:41:12;99651.72;;;10.10;100.00
48882;BME280;57063;51.406;-2.402;2023-11-19T06:43:37;99658.41;;;10.00;100.00
48882;BME280;57063;51.406;-2.402;2023-11-19T06:46:03;99650.56;;;10.01;100.00
48882;BME280;57063;51.406;-2.402;2023-11-19T06:48:34;99657.47;;;10.01;100.00
48882;BME280;57063;51.406;-2.402;2023-11-19T06:51:00;99650.03;;;10.09;100.00
48882;BME280;57063;51.406;-2.402;2023-11-19T06:53:25;99646.25;;;10.15;100.00
48882;BME280;57063;51.406;-2.402;2023-11-19T06:55:53;99642.53;;;10.06;100.00
48882;BME280;57063;51.406;-2.402;2023-11-19T06:58:19;99643.03;;;9.98;100.00
48882;BME280;57063;51.406;-2.402;2023-11-19T07:00:44;99647.16;;;10.14;100.00
48882;BME280;57063;51.406;-2.402;2023-11-19T07:03:11;99641.91;;;10.02;100.00
48882;BME280;57063;51.406;-2.402;2023-11-19T07:05:36;99641.69;;;10.05;100.00
48882;BME280;57063;51.406;-2.402;2023-11-19T07:08:04;99652.00;;;10.18;100.00
48882;BME280;57063;51.406;-2.402;2023-11-19T07:10:29;99647.88;;;10.16;100.00
48882;BME280;57063;51.406;-2.402;2023-11-19T07:12:55;99652.44;;;10.12;100.00
48882;BME280;57063;51.406;-2.402;2023-11-19T07:15:21;99641.69;;;10.18;100.00
48882;BME280;57063;51.406;-2.402;2023-11-19T07:17:46;99642.53;;;10.06;100.00
48882;BME280;57063;51.406;-2.402;2023-11-19T07:20:13;99641.38;;;10.10;100.00
48882;BME280;57063;51.406;-2.402;2023-11-19T07:22:45;99648.38;;;10.21;100.00
48882;BME280;57063;51.406;-2.402;2023-11-19T07:25:13;99651.41;;;10.15;100.00
48882;BME280;57063;51.406;-2.402;2023-11-19T07:27:38;99664.06;;;10.18;100.00
48882;BME280;57063;51.406;-2.402;2023-11-19T07:30:05;99673.06;;;10.12;100.00
48882;BME280;57063;51.406;-2.402;2023-11-19T07:32:32;99688.31;;;10.15;100.00
48882;BME280;57063;51.406;-2.402;2023-11-19T07:34:57;99695.09;;;10.16;100.00
48882;BME280;57063;51.406;-2.402;2023-11-19T07:37:23;99692.84;;;9.99;100.00
48882;BME280;57063;51.406;-2.402;2023-11-19T07:39:48;99683.13;;;9.90;100.00
48882;BME280;57063;51.406;-2.402;2023-11-19T07:42:13;99673.03;;;9.86;100.00
48882;BME280;57063;51.406;-2.402;2023-11-19T07:44:39;99681.28;;;9.79;100.00
48882;BME280;57063;51.406;-2.402;2023-11-19T07:47:04;99683.97;;;9.77;100.00
48882;BME280;57063;51.406;-2.402;2023-11-19T07:49:29;99672.31;;;9.72;100.00
48882;BME280;57063;51.406;-2.402;2023-11-19T07:51:56;99669.00;;;9.82;100.00
48882;BME280;57063;51.406;-2.402;2023-11-19T07:54:21;99675.09;;;9.81;100.00
48882;BME280;57063;51.406;-2.402;2023-11-19T07:56:47;99671.72;;;9.81;100.00
48882;BME280;57063;51.406;-2.402;2023-11-19T07:59:12;99672.53;;;9.81;100.00
48882;BME280;57063;51.406;-2.402;2023-11-19T08:01:37;99669.75;;;9.84;100.00
48882;BME280;57063;51.406;-2.402;2023-11-19T08:04:03;99666.25;;;9.85;100.00
48882;BME280;57063;51.406;-2.402;2023-11-19T08:06:28;99675.09;;;9.94;100.00
48882;BME280;57063;51.406;-2.402;2023-11-19T08:08:54;99674.72;;;10.00;100.00
48882;BME280;57063;51.406;-2.402;2023-11-19T08:11:19;99668.09;;;9.96;100.00
48882;BME280;57063;51.406;-2.402;2023-11-19T08:13:45;99665.22;;;10.01;100.00
48882;BME280;57063;51.406;-2.402;2023-11-19T08:16:10;99670.38;;;10.01;100.00
48882;BME280;57063;51.406;-2.402;2023-11-19T08:18:36;99660.28;;;9.98;100.00
48882;BME280;57063;51.406;-2.402;2023-11-19T08:21:01;99656.34;;;10.05;100.00
48882;BME280;57063;51.406;-2.402;2023-11-19T08:23:29;99648.91;;;10.13;100.00
48882;BME280;57063;51.406;-2.402;2023-11-19T08:25:55;99656.25;;;10.19;100.00
48882;BME280;57063;51.406;-2.402;2023-11-19T08:28:20;99658.00;;;10.32;100.00
48882;BME280;57063;51.406;-2.402;2023-11-19T08:30:46;99653.03;;;10.41;100.00
48882;BME280;57063;51.406;-2.402;2023-11-19T08:33:12;99660.88;;;10.40;100.00
48882;BME280;57063;51.406;-2.402;2023-11-19T08:35:37;99655.50;;;10.43;100.00
48882;BME280;57063;51.406;-2.402;2023-11-19T08:38:02;99659.03;;;10.42;100.00
48882;BME280;57063;51.406;-2.402;2023-11-19T08:40:28;99654.69;;;10.42;100.00
48882;BME280;57063;51.406;-2.402;2023-11-19T08:42:55;99657.56;;;10.38;100.00
48882;BME280;57063;51.406;-2.402;2023-11-19T08:45:21;99648.06;;;10.38;100.00
48882;BME280;57063;51.406;-2.402;2023-11-19T08:47:46;99649.28;;;10.45;100.00
48882;BME280;57063;51.406;-2.402;2023-11-19T08:50:11;99653.13;;;10.40;100.00
48882;BME280;57063;51.406;-2.402;2023-11-19T08:52:37;99654.69;;;10.42;100.00
48882;BME280;57063;51.406;-2.402;2023-11-19T08:55:03;99649.75;;;10.39;100.00
48882;BME280;57063;51.406;-2.402;2023-11-19T08:57:30;99646.00;;;10.43;100.00
48882;BME280;57063;51.406;-2.402;2023-11-19T08:59:56;99644.53;;;10.52;100.00
48882;BME280;57063;51.406;-2.402;2023-11-19T09:02:21;99652.38;;;10.50;100.00
48882;BME280;57063;51.406;-2.402;2023-11-19T09:04:46;99640.50;;;10.48;100.00
48882;BME280;57063;51.406;-2.402;2023-11-19T09:07:12;99644.75;;;10.49;100.00
48882;BME280;57063;51.406;-2.402;2023-11-19T09:09:37;99652.19;;;10.54;100.00
48882;BME280;57063;51.406;-2.402;2023-11-19T09:12:03;99649.19;;;10.47;100.00
48882;BME280;57063;51.406;-2.402;2023-11-19T09:14:29;99644.53;;;10.52;100.00
48882;BME280;57063;51.406;-2.402;2023-11-19T09:16:56;99648.88;;;10.52;100.00
48882;BME280;57063;51.406;-2.402;2023-11-19T09:19:21;99634.22;;;10.52;100.00
48882;BME280;57063;51.406;-2.402;2023-11-19T09:21:46;99628.19;;;10.64;100.00
48882;BME280;57063;51.406;-2.402;2023-11-19T09:24:14;99645.00;;;10.70;100.00
48882;BME280;57063;51.406;-2.402;2023-11-19T09:26:40;99626.34;;;10.66;100.00
48882;BME280;57063;51.406;-2.402;2023-11-19T09:29:09;99633.63;;;10.73;100.00
48882;BME280;57063;51.406;-2.402;2023-11-19T09:31:35;99640.94;;;10.79;100.00
48882;BME280;57063;51.406;-2.402;2023-11-19T09:34:01;99634.75;;;10.81;100.00
48882;BME280;57063;51.406;-2.402;2023-11-19T09:36:26;99630.63;;;10.79;100.00
48882;BME280;57063;51.406;-2.402;2023-11-19T09:38:51;99629.97;;;10.88;100.00
48882;BME280;57063;51.406;-2.402;2023-11-19T09:41:17;99636.34;;;10.95;100.00
48882;BME280;57063;51.406;-2.402;2023-11-19T09:43:45;99645.78;;;11.07;100.00
48882;BME280;57063;51.406;-2.402;2023-11-19T09:46:10;99633.56;;;11.09;100.00
48882;BME280;57063;51.406;-2.402;2023-11-19T09:48:38;99638.25;;;11.04;100.00
48882;BME280;57063;51.406;-2.402;2023-11-19T09:51:06;99634.03;;;11.03;100.00
48882;BME280;57063;51.406;-2.402;2023-11-19T09:53:32;99631.84;;;11.10;100.00
48882;BME280;57063;51.406;-2.402;2023-11-19T09:55:59;99633.13;;;11.16;100.00
48882;BME280;57063;51.406;-2.402;2023-11-19T09:58:26;99645.34;;;11.13;100.00
48882;BME280;57063;51.406;-2.402;2023-11-19T10:00:51;99627.97;;;11.16;100.00
48882;BME280;57063;51.406;-2.402;2023-11-19T10:03:17;99646.06;;;11.16;100.00
48882;BME280;57063;51.406;-2.402;2023-11-19T10:05:43;99647.91;;;11.13;100.00
48882;BME280;57063;51.406;-2.402;2023-11-19T10:08:08;99644.69;;;11.23;100.00
48882;BME280;57063;51.406;-2.402;2023-11-19T10:10:36;99636.31;;;11.19;100.00
48882;BME280;57063;51.406;-2.402;2023-11-19T10:13:01;99643.25;;;11.19;100.00
48882;BME280;57063;51.406;-2.402;2023-11-19T10:15:26;99636.66;;;11.14;100.00
48882;BME280;57063;51.406;-2.402;2023-11-19T10:17:56;99635.00;;;11.13;100.00
48882;BME280;57063;51.406;-2.402;2023-11-19T10:20:21;99648.41;;;11.19;100.00
48882;BME280;57063;51.406;-2.402;2023-11-19T10:22:47;99640.78;;;11.17;100.00
48882;BME280;57063;51.406;-2.402;2023-11-19T10:25:23;99649.06;;;11.09;100.00
48882;BME280;57063;51.406;-2.402;2023-11-19T10:27:50;99642.50;;;11.05;100.00
48882;BME280;57063;51.406;-2.402;2023-11-19T10:30:26;99640.16;;;11.13;100.00
48882;BME280;57063;51.406;-2.402;2023-11-19T10:33:14;99633.41;;;11.00;100.00
48882;BME280;57063;51.406;-2.402;2023-11-19T10:35:55;99638.31;;;11.16;100.00
48882;BME280;57063;51.406;-2.402;2023-11-19T10:38:25;99644.13;;;11.06;100.00
48882;BME280;57063;51.406;-2.402;2023-11-19T10:40:51;99642.25;;;11.08;100.00
48882;BME280;57063;51.406;-2.402;2023-11-19T10:43:20;99642.66;;;11.15;100.00
48882;BME280;57063;51.406;-2.402;2023-11-19T10:45:50;99651.22;;;11.16;100.00
48882;BME280;57063;51.406;-2.402;2023-11-19T10:48:16;99642.56;;;11.28;100.00
48882;BME280;57063;51.406;-2.402;2023-11-19T10:50:43;99632.25;;;11.28;100.00
48882;BME280;57063;51.406;-2.402;2023-11-19T10:53:12;99640.56;;;11.20;100.00
48882;BME280;57063;51.406;-2.402;2023-11-19T10:55:47;99635.06;;;11.36;100.00
48882;BME280;57063;51.406;-2.402;2023-11-19T10:58:15;99624.63;;;11.38;100.00
48882;BME280;57063;51.406;-2.402;2023-11-19T11:00:52;99626.41;;;11.37;100.00
48882;BME280;57063;51.406;-2.402;2023-11-19T11:03:20;99622.31;;;11.46;100.00
48882;BME280;57063;51.406;-2.402;2023-11-19T11:05:47;99625.03;;;11.44;100.00
48882;BME280;57063;51.406;-2.402;2023-11-19T11:08:13;99618.66;;;11.48;100.00
48882;BME280;57063;51.406;-2.402;2023-11-19T11:13:13;99626.16;;;11.40;100.00
48882;BME280;57063;51.406;-2.402;2023-11-19T11:15:39;99625.13;;;11.43;100.00
48882;BME280;57063;51.406;-2.402;2023-11-19T11:18:08;99624.69;;;11.49;100.00
48882;BME280;57063;51.406;-2.402;2023-11-19T11:20:34;99613.97;;;11.42;100.00
48882;BME280;57063;51.406;-2.402;2023-11-19T11:28:36;99605.41;;;11.53;100.00
48882;BME280;57063;51.406;-2.402;2023-11-19T11:31:14;99604.59;;;11.52;100.00
48882;BME280;57063;51.406;-2.402;2023-11-19T11:34:04;99602.72;;;11.54;100.00
48882;BME280;57063;51.406;-2.402;2023-11-19T11:36:38;99599.19;;;11.55;100.00
48882;BME280;57063;51.406;-2.402;2023-11-19T11:39:07;99599.66;;;11.61;100.00
48882;BME280;57063;51.406;-2.402;2023-11-19T11:41:33;99609.53;;;11.55;100.00
48882;BME280;57063;51.406;-2.402;2023-11-19T11:43:58;99610.00;;;11.61;100.00
48882;BME280;57063;51.406;-2.402;2023-11-19T11:49:08;99610.94;;;11.60;100.00
48882;BME280;57063;51.406;-2.402;2023-11-19T11:57:06;99627.22;;;11.38;100.00
48882;BME280;57063;51.406;-2.402;2023-11-19T12:02:11;99624.31;;;11.42;100.00
48882;BME280;57063;51.406;-2.402;2023-11-19T12:04:37;99629.91;;;11.36;100.00
48882;BME280;57063;51.406;-2.402;2023-11-19T12:07:13;99625.47;;;11.38;100.00
48882;BME280;57063;51.406;-2.402;2023-11-19T12:09:41;99617.00;;;11.36;100.00
48882;BME280;57063;51.406;-2.402;2023-11-19T12:12:23;99610.28;;;11.33;100.00
48882;BME280;57063;51.406;-2.402;2023-11-19T12:15:07;99613.34;;;11.39;100.00
48882;BME280;57063;51.406;-2.402;2023-11-19T12:17:51;99613.72;;;11.45;100.00
48882;BME280;57063;51.406;-2.402;2023-11-19T12:20:18;99610.66;;;11.40;100.00
48882;BME280;57063;51.406;-2.402;2023-11-19T12:22:45;99617.84;;;11.37;100.00
48882;BME280;57063;51.406;-2.402;2023-11-19T12:25:11;99619.47;;;11.38;100.00
48882;BME280;57063;51.406;-2.402;2023-11-19T12:30:07;99615.59;;;11.43;100.00
48882;BME280;57063;51.406;-2.402;2023-11-19T12:32:45;99614.69;;;11.55;100.00
48882;BME280;57063;51.406;-2.402;2023-11-19T12:35:12;99616.22;;;11.47;100.00
48882;BME280;57063;51.406;-2.402;2023-11-19T12:37:45;99608.56;;;11.45;100.00
48882;BME280;57063;51.406;-2.402;2023-11-19T12:40:22;99610.00;;;11.49;100.00
48882;BME280;57063;51.406;-2.402;2023-11-19T12:42:49;99597.78;;;11.51;100.00
48882;BME280;57063;51.406;-2.402;2023-11-19T12:45:15;99611.19;;;11.56;100.00
48882;BME280;57063;51.406;-2.402;2023-11-19T12:47:41;99613.19;;;11.64;100.00
48882;BME280;57063;51.406;-2.402;2023-11-19T12:50:08;99604.47;;;11.65;100.00
48882;BME280;57063;51.406;-2.402;2023-11-19T12:52:37;99597.69;;;11.64;100.00
48882;BME280;57063;51.406;-2.402;2023-11-19T12:57:47;99605.91;;;11.69;100.00
48882;BME280;57063;51.406;-2.402;2023-11-19T13:00:21;99579.47;;;11.66;100.00
48882;BME280;57063;51.406;-2.402;2023-11-19T13:02:51;99591.94;;;11.72;100.00
48882;BME280;57063;51.406;-2.402;2023-11-19T13:08:03;99597.19;;;11.70;100.00
48882;BME280;57063;51.406;-2.402;2023-11-19T13:10:33;99612.13;;;11.67;100.00